首页
METAR-TAF:

METAR-TAF

机场 :

圣玛尔塔, 哥伦比亚

纬度: 11-08N, 经度: 074-14W, 海拔: 4米

当前天气观测

该预报发布于22分钟前的10:00 UTC
风速3节,风向多变
温度 25°C
湿度 89%
气压 1010 hPa

METAR: SKSM 191000Z AUTO VRB03KT //// R01///// // ////// 25/23 Q1010

时间: 05:22 (10:22 UTC)

预报

该预报发布于5小时和52分钟前的04:30 UTC
预报有效从19日的 06点(UTC)到 20日的 06点(UTC)
风速4节,风向东北
能见度10公里或以上
散云层高于1800英尺
短暂存在
从 19日的 06点(UTC)到 19日的 08点(UTC)
短暂存在
从 19日的 18点(UTC)到 19日的 21点(UTC)
散云层高于1500英尺, 积雨云.
几率 40% :
短暂存在
从 19日的 21点(UTC)到 19日的 23点(UTC)
多云层高于1000英尺
毛毛雨,

TAF: SKSM 190430Z 1906/2006 04004KT 9999 SCT018 TEMPO 1906/1908 RA TEMPO 1918/1921 RA SCT015CB PROB40 TEMPO 1921/1923 DZ BKN010 TX32/1918Z TN25/1910Z

超过4000个机场的气象观测和天气预报(METAR&TAF报告)。

可查询的气象台以黄色和红色小点在地图上表示。

将鼠标移到小点上方,可查看气象台名称。

然后点击查看天气观测和预报。

如需切换地图:点击带黑十字的绿色按钮放大地图;点击带横线的绿色按钮缩小地图;或者点击绿色箭头查看邻近地区的地图。


METAR-TAF: